^^
Station Historical Data
Daily Summary for March 10, 2017 Units:  English    Metric   Both
« Previous Day
Next Day »
Daily Weekly Monthly Yearly Custom
  High: Low: Average:
Temperature: 44.3 °F 20.6 °F 31.8 °F
Dew Point: 29.3 °F 4.9 °F 21.5 °F
Humidity: 94% 42% 68%
Wind Speed: 9.0mph 0.0mph 2.4mph
Wind Gust: 24.0mph - -
Wind- - WSW
Pressure: 30.03 in 29.79 in -
Precipitation: 0.05 in    
Historical Graphs
 
 
Tabular Data for March 10, 2017
Time Temperature Dew Point Pressure Wind Wind Speed Wind Gust Humidity Rainfall Rate (Hourly) Conditions
00:00 44.3 °F 23.2 °F 29.99 in North 1.0 mph 10.0 mph 43% 0.00 in OVC
00:15 44.1 °F 22.4 °F 29.98 in North 1.0 mph 9.0 mph 42% 0.00 in OVC
00:30 43.9 °F 22.8 °F 29.97 in NE 1.0 mph 6.0 mph 43% 0.00 in OVC
00:45 43.5 °F 23.0 °F 29.97 in North 1.0 mph 5.0 mph 44% 0.00 in OVC
01:00 43.2 °F 24.3 °F 29.96 in North 3.0 mph 8.0 mph 47% 0.00 in OVC
02:15 40.7 °F 23.5 °F 29.94 in NNW 1.0 mph 12.0 mph 50% 0.00 in BKN
02:30 40.3 °F 24.1 °F 29.93 in NW 1.0 mph 5.0 mph 52% 0.00 in BKN
02:45 39.7 °F 24.4 °F 29.93 in NNE 1.0 mph 9.0 mph 54% 0.00 in BKN
03:00 39.3 °F 24.4 °F 29.94 in North 1.0 mph 7.0 mph 55% 0.00 in BKN
03:15 39.1 °F 24.7 °F 29.93 in Calm   3.0 mph 56% 0.00 in BKN
03:30 39.1 °F 25.1 °F 29.93 in Calm   2.0 mph 57% 0.00 in BKN
03:45 38.8 °F 23.2 °F 29.92 in North 1.0 mph 6.0 mph 53% 0.00 in BKN
04:00 38.5 °F 22.4 °F 29.91 in NNW 2.0 mph 8.0 mph 52% 0.00 in BKN
04:15 38.2 °F 22.1 °F 29.92 in NNW 2.0 mph 6.0 mph 52% 0.00 in BKN
04:30 37.1 °F 23.3 °F 29.91 in NW 3.0 mph 10.0 mph 57% 0.00 in BKN
04:45 36.0 °F 24.6 °F 29.91 in NNW 1.0 mph 10.0 mph 63% 0.00 in BKN
05:00 35.1 °F 25.6 °F 29.91 in North 5.0 mph 10.0 mph 68% 0.00 in BKN
05:15 34.0 °F 26.3 °F 29.90 in NNW 3.0 mph 12.0 mph 73% 0.00 in BKN
05:30 33.2 °F 26.5 °F 29.91 in NNW 2.0 mph 7.0 mph 76% 0.00 in BKN
05:45 32.8 °F 26.4 °F 29.89 in North 3.0 mph 7.0 mph 77% 0.00 in BKN
06:00 32.4 °F 26.9 °F 29.89 in NW 2.0 mph 5.0 mph 80% 0.00 in BKN
06:15 32.0 °F 27.1 °F 29.90 in NNE 2.0 mph 5.0 mph 82% 0.00 in -SN
06:30 31.2 °F 27.8 °F 29.92 in North 1.0 mph 4.0 mph 87% 0.00 in -SN
06:45 30.8 °F 28.2 °F 29.92 in Calm   4.0 mph 90% 0.00 in -SN
07:00 30.6 °F 28.3 °F 29.92 in NNW 1.0 mph 3.0 mph 91% 0.00 in -SN
07:15 30.3 °F 28.3 °F 29.92 in Calm   6.0 mph 92% 0.00 in -SN
07:30 30.2 °F 28.2 °F 29.91 in NNW 1.0 mph 5.0 mph 92% 0.00 in -SN
07:45 30.4 °F 28.6 °F 29.89 in NNW 1.0 mph 5.0 mph 93% 0.00 in -SN
08:00 30.4 °F 28.6 °F 29.89 in North 1.0 mph 4.0 mph 93% 0.00 in -SN
08:15 30.6 °F 28.8 °F 29.89 in Calm   4.0 mph 93% 0.00 in -SN
08:30 30.6 °F 28.8 °F 29.89 in NNW 1.0 mph 4.0 mph 93% 0.00 in -SN
08:45 30.6 °F 28.8 °F 29.88 in NNE 1.0 mph 4.0 mph 93% 0.00 in -SN
09:00 30.5 °F 28.7 °F 29.89 in NW 1.0 mph 5.0 mph 93% 0.00 in -SN
09:15 30.5 °F 28.7 °F 29.88 in NNW 2.0 mph 5.0 mph 93% 0.00 in -SN
09:30 30.8 °F 29.3 °F 29.89 in Calm   4.0 mph 94% 0.00 in -SN
09:45 30.8 °F 29.3 °F 29.88 in NNW 1.0 mph 3.0 mph 94% 0.00 in -SN
10:00 30.6 °F 29.1 °F 29.87 in NNW 1.0 mph 7.0 mph 94% 0.00 in -SN
10:15 30.3 °F 28.8 °F 29.87 in Calm   5.0 mph 94% 0.00 in -SN
10:30 30.5 °F 29.0 °F 29.87 in Calm   2.0 mph 94% 0.00 in -SN
10:45 30.7 °F 29.2 °F 29.86 in Calm   2.0 mph 94% 0.00 in -SN
11:00 30.7 °F 29.2 °F 29.86 in NNW 1.0 mph 2.0 mph 94% 0.00 in -SN
11:15 30.6 °F 29.1 °F 29.86 in Calm   5.0 mph 94% 0.00 in CLR
11:30 30.7 °F 29.1 °F 29.87 in NW 1.0 mph 6.0 mph 94% 0.00 in CLR
11:45 30.4 °F 28.9 °F 29.85 in North 1.0 mph 7.0 mph 94% 0.00 in CLR
12:00 30.4 °F 28.9 °F 29.85 in NNW 2.0 mph 7.0 mph 94% 0.00 in CLR
12:15 30.5 °F 29.0 °F 29.84 in NNW 2.0 mph 9.0 mph 94% 0.00 in CLR
12:30 30.0 °F 28.5 °F 29.84 in NNW 2.0 mph 9.0 mph 94% 0.00 in CLR
12:45 30.1 °F 28.6 °F 29.83 in NW 1.0 mph 12.0 mph 94% 0.00 in CLR
13:00 30.5 °F 28.7 °F 29.82 in NNW 1.0 mph 10.0 mph 93% 0.00 in CLR
13:15 31.0 °F 29.2 °F 29.82 in NNW 2.0 mph 9.0 mph 93% 0.00 in -SN
13:30 30.9 °F 28.6 °F 29.81 in North 5.0 mph 12.0 mph 91% 0.00 in -SN
13:45 31.3 °F 28.4 °F 29.81 in NW 3.0 mph 8.0 mph 89% 0.00 in -SN
14:00 31.7 °F 28.6 °F 29.80 in NNW 2.0 mph 7.0 mph 88% 0.00 in -SN
14:15 32.7 °F 28.7 °F 29.79 in WNW 2.0 mph 7.0 mph 85% 0.00 in BKN
14:30 33.4 °F 28.8 °F 29.79 in Calm   5.0 mph 83% 0.00 in BKN
14:45 34.0 °F 27.9 °F 29.79 in NNW 1.0 mph 4.0 mph 78% 0.01 in RA
15:00 34.6 °F 26.8 °F 29.79 in NNW 2.0 mph 9.0 mph 73% 0.00 in BKN
15:15 34.1 °F 24.7 °F 29.79 in NE 2.0 mph 14.0 mph 68% 0.00 in BKN
15:30 35.3 °F 24.3 °F 29.79 in SSW 5.0 mph 14.0 mph 64% 0.00 in BKN
15:45 36.1 °F 26.6 °F 29.80 in West 3.0 mph 13.0 mph 68% 0.00 in BKN
16:00 35.2 °F 23.8 °F 29.81 in NNW 3.0 mph 13.0 mph 63% 0.00 in BKN
16:15 34.4 °F 21.1 °F 29.82 in NW 7.0 mph 13.0 mph 58% 0.00 in SCT
16:30 33.7 °F 18.8 °F 29.82 in NE 6.0 mph 17.0 mph 54% 0.01 in RA
16:45 33.6 °F 17.9 °F 29.82 in North 7.0 mph 15.0 mph 52% 0.01 in RA
17:00 33.9 °F 17.6 °F 29.83 in North 3.0 mph 18.0 mph 51% 0.00 in SCT
17:15 34.1 °F 18.3 °F 29.83 in NNE 6.0 mph 15.0 mph 52% 0.01 in SCT
17:30 33.2 °F 15.1 °F 29.85 in SE 2.0 mph 18.0 mph 47% 0.00 in SCT
17:45 32.0 °F 14.1 °F 29.86 in North 5.0 mph 16.0 mph 47% 0.01 in SCT
18:00 30.9 °F 14.4 °F 29.86 in NNW 6.0 mph 16.0 mph 50% 0.00 in SCT
18:15 30.2 °F 11.4 °F 29.87 in NNE 7.0 mph 15.0 mph 45% 0.00 in SCT
18:30 29.8 °F 11.5 °F 29.88 in NNE 3.0 mph 12.0 mph 46% 0.00 in SCT
18:45 29.6 °F 11.3 °F 29.89 in SW 2.0 mph 12.0 mph 46% 0.00 in SCT
19:00 29.4 °F 11.6 °F 29.90 in North 1.0 mph 9.0 mph 47% 0.00 in SCT
19:15 28.9 °F 10.7 °F 29.91 in NNW 3.0 mph 15.0 mph 46% 0.00 in FEW
19:30 28.6 °F 10.4 °F 29.92 in NNW 5.0 mph 18.0 mph 46% 0.00 in FEW
19:45 28.2 °F 11.0 °F 29.92 in North 2.0 mph 15.0 mph 48% 0.00 in FEW
20:00 27.8 °F 10.6 °F 29.94 in SW 3.0 mph 12.0 mph 48% 0.00 in FEW
20:15 27.4 °F 10.7 °F 29.95 in NNW 8.0 mph 22.0 mph 49% 0.00 in FEW
20:30 26.7 °F 10.5 °F 29.95 in North 7.0 mph 20.0 mph 50% 0.00 in FEW
20:45 26.2 °F 9.2 °F 29.96 in SSW 2.0 mph 14.0 mph 48% 0.00 in FEW
21:00 25.6 °F 8.1 °F 29.97 in North 5.0 mph 17.0 mph 47% 0.00 in FEW
21:15 24.8 °F 8.8 °F 29.98 in WNW 3.0 mph 20.0 mph 50% 0.00 in SCT
21:30 24.3 °F 7.4 °F 29.99 in SSW 5.0 mph 17.0 mph 48% 0.00 in SCT
21:45 23.9 °F 8.4 °F 30.00 in WNW 5.0 mph 16.0 mph 51% 0.00 in SCT
22:00 23.4 °F 7.9 °F 30.01 in WSW 1.0 mph 17.0 mph 51% 0.00 in SCT
22:15 23.0 °F 7.9 °F 30.01 in NNW 9.0 mph 17.0 mph 52% 0.00 in SCT
22:30 22.5 °F 7.9 °F 30.01 in Calm   20.0 mph 53% 0.00 in SCT
22:45 22.0 °F 7.0 °F 30.02 in NNW 1.0 mph 21.0 mph 52% 0.00 in SCT
23:00 21.6 °F 6.2 °F 30.02 in WSW 3.0 mph 15.0 mph 51% 0.00 in SCT
23:15 21.3 °F 5.5 °F 30.01 in WNW 7.0 mph 21.0 mph 50% 0.00 in CLR
23:30 21.0 °F 5.2 °F 30.02 in WSW 5.0 mph 20.0 mph 50% 0.00 in CLR
23:45 20.6 °F 4.9 °F 30.03 in SW 3.0 mph 24.0 mph 50% 0.00 in CLR
TarryTown NY Weather
Compliments of Weather Underground - 1.5 mb